Time;durP1;ratioP1;P1;durP2;ratioP2;P2;SDS_P1;SDS_P2;PMS_P1;PMS_P2;Temp;Humidity;BMP_temperature;BMP_pressure;BME280_temperature;BME280_humidity;BME280_pressure;Samples;Min_cycle;Max_cycle;Signal;HPM_P1;HPM_P2
2022/01/12 00:01:43;;;;;;;43.22;22.55;;;;;;;-15.20;72.18;103462.75;5114051;28;20044;-65
2022/01/12 00:04:10;;;;;;;53.15;26.25;;;;;;;-15.27;73.00;103449.66;5095277;28;20462;-67
2022/01/12 00:06:36;;;;;;;48.08;25.67;;;;;;;-15.37;72.86;103444.13;5113858;28;20031;-67
2022/01/12 00:09:06;;;;;;;50.73;25.73;;;;;;;-15.67;72.27;103407.06;5095440;28;20023;-65
2022/01/12 00:11:35;;;;;;;46.25;23.95;;;;;;;-15.42;73.33;103447.28;5113518;28;20486;-66
2022/01/12 00:14:02;;;;;;;51.08;26.45;;;;;;;-15.37;73.28;103441.56;5113470;28;20035;-66
2022/01/12 00:16:27;;;;;;;47.90;26.00;;;;;;;-15.31;73.24;103437.56;5113891;28;20076;-66
2022/01/12 00:18:53;;;;;;;42.70;25.40;;;;;;;-15.23;72.58;103433.63;5113468;28;20036;-66
2022/01/12 00:21:19;;;;;;;43.90;23.80;;;;;;;-15.24;72.93;103444.66;5095332;28;20035;-67
2022/01/12 00:23:44;;;;;;;47.60;22.80;;;;;;;-15.20;73.05;103432.06;5095598;28;20039;-65
2022/01/12 00:26:23;;;;;;;50.05;26.05;;;;;;;-15.32;72.35;103410.22;5094692;28;20530;-65
2022/01/12 00:34:18;;;;;;;43.92;22.27;;;;;;;-15.15;72.68;103416.94;5113302;28;20035;-67
2022/01/12 00:36:49;;;;;;;46.90;22.17;;;;;;;-15.17;71.69;103408.31;5094917;28;20093;-66
2022/01/12 00:39:15;;;;;;;44.63;26.27;;;;;;;-15.15;72.22;103414.38;5094542;28;20039;-66
2022/01/12 00:41:41;;;;;;;45.03;24.93;;;;;;;-15.17;71.75;103426.22;5077684;28;20030;-66
2022/01/12 00:44:10;;;;;;;45.17;24.48;;;;;;;-15.40;71.47;103390.34;5094975;28;20411;-68
2022/01/12 00:46:37;;;;;;;57.20;29.80;;;;;;;-15.47;71.89;103392.56;5113073;28;20028;-67
2022/01/12 00:49:03;;;;;;;44.58;26.95;;;;;;;-15.48;72.09;103401.91;5113050;28;20078;-64
2022/01/12 00:51:33;;;;;;;46.90;26.63;;;;;;;-15.49;72.28;103415.50;5112961;28;20067;-67
2022/01/12 00:54:01;;;;;;;43.90;24.58;;;;;;;-15.54;72.21;103417.00;5095064;28;20402;-66
2022/01/12 00:56:27;;;;;;;57.67;27.85;;;;;;;-15.59;72.20;103407.41;5094839;28;20035;-64
2022/01/12 00:58:54;;;;;;;66.75;32.97;;;;;;;-15.68;72.73;103395.97;5077794;28;20467;-68
2022/01/12 01:01:21;;;;;;;71.20;32.70;;;;;;;-15.64;72.70;103401.22;5077495;28;20127;-65
2022/01/12 01:03:51;;;;;;;79.80;40.20;;;;;;;-15.70;72.61;103396.72;5094197;28;20044;-66
2022/01/12 01:06:17;;;;;;;60.72;31.38;;;;;;;-15.71;72.46;103395.84;5112308;28;20030;-65
2022/01/12 01:08:44;;;;;;;69.88;32.67;;;;;;;-15.72;72.60;103378.78;5112302;28;20102;-65
2022/01/12 01:11:11;;;;;;;64.68;31.70;;;;;;;-15.71;72.17;103380.53;5077556;28;20093;-65
2022/01/12 01:14:15;;;;;;;51.58;27.73;;;;;;;-15.76;72.24;103368.38;5112322;28;20039;-67
2022/01/12 01:27:45;;;;;;;52.00;24.98;;;;;;;-15.57;72.35;103376.00;5112583;28;20437;-65
2022/01/12 01:30:11;;;;;;;46.17;23.02;;;;;;;-16.01;71.36;103300.91;5077112;28;20036;-65
2022/01/12 01:32:37;;;;;;;39.40;21.95;;;;;;;-15.54;72.21;103367.56;5077327;28;20068;-65
2022/01/12 01:35:04;;;;;;;49.20;26.48;;;;;;;-15.56;71.71;103358.97;5094349;28;20028;-64
2022/01/12 01:37:30;;;;;;;36.83;22.33;;;;;;;-15.72;71.18;103343.03;5112007;28;20044;-68
2022/01/12 01:39:56;;;;;;;44.67;23.58;;;;;;;-15.72;71.65;103352.38;5112022;28;20418;-65
2022/01/12 01:42:29;;;;;;;47.60;22.00;;;;;;;-15.70;71.77;103350.75;5112093;28;20035;-67
2022/01/12 01:53:19;;;;;;;43.42;23.00;;;;;;;-15.99;71.55;103301.00;5112002;28;20071;-67
2022/01/12 01:55:45;;;;;;;50.95;26.23;;;;;;;-15.89;71.98;103317.59;5079451;28;20607;-64
2022/01/12 01:58:11;;;;;;;46.10;25.13;;;;;;;-16.65;71.72;103202.84;5094000;28;20108;-63
2022/01/12 02:00:39;;;;;;;44.80;24.00;;;;;;;-15.90;71.96;103331.13;5076992;28;20162;-67
2022/01/12 02:03:05;;;;;;;35.53;20.48;;;;;;;-15.97;72.88;103300.25;5093741;28;20131;-65
2022/01/12 02:05:31;;;;;;;41.30;21.50;;;;;;;-15.78;72.13;103322.34;5093858;28;20059;-66
2022/01/12 02:07:57;;;;;;;43.78;22.83;;;;;;;-15.84;72.60;103303.34;5111998;28;20096;-67
2022/01/12 02:10:23;;;;;;;38.55;21.27;;;;;;;-15.72;71.73;103314.94;5111937;28;20028;-66
2022/01/12 02:12:49;;;;;;;38.27;24.50;;;;;;;-15.71;71.63;103314.13;5093307;28;20039;-65
2022/01/12 02:15:22;;;;;;;52.70;22.73;;;;;;;-15.73;71.40;103314.88;5093229;28;20043;-66
2022/01/12 02:40:09;;;;;;;34.38;20.65;;;;;;;-15.65;71.88;103308.41;5094906;28;20052;-67
2022/01/12 02:42:37;;;;;;;30.38;17.65;;;;;;;-15.68;70.98;103305.72;5095338;28;20028;-67
2022/01/12 02:55:47;;;;;;;39.33;19.42;;;;;;;-15.97;71.93;103271.28;5093822;28;20040;-65
2022/01/12 02:58:13;;;;;;;46.17;21.83;;;;;;;-15.83;72.12;103287.22;5077595;28;20407;-68
2022/01/12 03:01:11;;;;;;;38.43;19.73;;;;;;;-15.93;72.31;103264.63;5094368;28;20032;-65
2022/01/12 03:03:34;;;;;;;41.13;21.55;;;;;;;-15.78;71.94;103278.06;5092984;28;20035;-64
2022/01/12 03:06:03;;;;;;;43.92;18.33;;;;;;;-15.86;71.57;103266.66;5095071;28;20032;-64
2022/01/12 03:08:36;;;;;;;39.08;21.05;;;;;;;-15.91;71.98;103257.91;5094680;28;20085;-66
2022/01/12 03:11:02;;;;;;;33.40;20.25;;;;;;;-16.00;71.58;103256.72;5094964;28;20031;-65
2022/01/12 03:13:27;;;;;;;42.05;22.48;;;;;;;-15.96;72.20;103265.38;5093575;28;20054;-67
2022/01/12 03:15:53;;;;;;;35.57;22.60;;;;;;;-15.94;72.71;103265.44;5094823;28;20062;-67
2022/01/12 03:18:19;;;;;;;44.13;22.57;;;;;;;-15.96;72.25;103255.16;5094715;28;20048;-66
2022/01/12 03:20:45;;;;;;;39.10;21.40;;;;;;;-15.96;72.23;103247.50;5095325;28;20036;-66
2022/01/12 03:23:14;;;;;;;37.00;20.90;;;;;;;-16.04;72.61;103234.44;5094444;28;20039;-64
2022/01/12 03:25:40;;;;;;;35.33;18.83;;;;;;;-15.89;72.31;103256.31;5094303;28;20036;-64
2022/01/12 03:28:07;;;;;;;34.47;19.10;;;;;;;-15.91;71.86;103252.81;5094502;28;20509;-66
2022/01/12 03:31:19;;;;;;;31.63;18.17;;;;;;;-15.95;71.57;103250.94;5076116;28;20039;-66
2022/01/12 04:10:35;;;;;;;47.42;24.35;;;;;;;-16.07;71.67;103213.88;5114379;28;20051;-69
2022/01/12 04:13:01;;;;;;;46.57;23.60;;;;;;;-16.10;72.10;103206.09;5113651;28;20039;-67
2022/01/12 04:15:27;;;;;;;38.30;20.77;;;;;;;-16.11;72.22;103200.94;5113987;28;20040;-67
2022/01/12 04:17:52;;;;;;;27.10;16.08;;;;;;;-16.00;71.71;103218.44;5113619;28;20399;-66
2022/01/12 04:20:18;;;;;;;28.30;15.50;;;;;;;-16.05;71.17;103203.75;5113556;28;20047;-63
2022/01/12 04:25:52;;;;;;;25.85;16.50;;;;;;;-16.18;71.59;103186.19;5051006;28;20136;-68
2022/01/12 04:28:19;;;;;;;26.90;15.80;;;;;;;-16.28;71.75;103179.81;5052227;28;20044;-66
2022/01/12 04:30:46;;;;;;;34.63;21.48;;;;;;;-16.42;71.98;103160.50;5082856;28;20051;-68
2022/01/12 04:33:11;;;;;;;34.17;14.02;;;;;;;-16.56;72.44;103156.47;5113630;28;20398;-69
2022/01/12 04:35:46;;;;;;;21.70;14.67;;;;;;;-16.56;72.45;103156.47;5113207;28;20058;-70
2022/01/12 04:38:12;;;;;;;36.08;15.60;;;;;;;-16.95;73.16;103093.69;5094718;28;20395;-67
2022/01/12 04:40:40;;;;;;;25.42;14.35;;;;;;;-16.55;72.83;103146.34;5077104;28;20458;-65
2022/01/12 04:43:08;;;;;;;23.13;13.88;;;;;;;-16.46;72.47;103144.19;5094260;28;20036;-66
2022/01/12 04:48:09;;;;;;;21.13;15.18;;;;;;;-16.45;72.03;103145.06;5112441;28;20042;-66
2022/01/12 04:50:37;;;;;;;24.23;14.68;;;;;;;-16.34;71.83;103143.84;5113251;28;20036;-66
2022/01/12 04:53:04;;;;;;;15.57;12.63;;;;;;;-16.31;71.97;103143.97;5112695;28;20106;-67
2022/01/12 04:55:30;;;;;;;21.48;14.57;;;;;;;-16.27;71.39;103140.72;5094449;28;20036;-66
2022/01/12 04:57:56;;;;;;;23.60;15.15;;;;;;;-16.33;71.41;103126.03;5094044;28;20095;-67
2022/01/12 05:00:22;;;;;;;27.27;16.40;;;;;;;-16.32;71.74;103127.78;5094457;28;20487;-66
2022/01/12 05:13:41;;;;;;;20.15;15.15;;;;;;;-16.50;71.63;103127.00;5112734;28;20042;-68
2022/01/12 05:16:11;;;;;;;22.33;12.93;;;;;;;-16.49;71.40;103118.53;5112793;28;20089;-67
2022/01/12 05:18:38;;;;;;;21.75;15.52;;;;;;;-16.70;71.06;103077.75;5112733;28;20039;-68
2022/01/12 05:21:04;;;;;;;23.20;14.50;;;;;;;-16.50;71.46;103115.94;5113002;28;20043;-66
2022/01/12 05:23:30;;;;;;;24.40;16.35;;;;;;;-16.57;72.31;103098.63;5112556;28;20042;-67
2022/01/12 05:25:56;;;;;;;32.13;21.65;;;;;;;-16.50;71.21;103090.41;5112457;28;20317;-67
2022/01/12 05:28:23;;;;;;;32.93;20.87;;;;;;;-16.37;71.98;103085.03;5112437;28;20410;-66
2022/01/12 05:30:52;;;;;;;29.80;15.20;;;;;;;-16.36;71.57;103086.78;5112180;28;20050;-68
2022/01/12 05:33:17;;;;;;;25.13;14.95;;;;;;;-16.60;71.50;103051.81;5112350;28;20441;-69
2022/01/12 05:35:44;;;;;;;26.60;15.57;;;;;;;-16.39;71.76;103084.09;5112744;28;20031;-65
2022/01/12 05:38:12;;;;;;;22.95;13.95;;;;;;;-16.48;71.91;103070.94;5095803;28;20544;-66
2022/01/12 05:40:43;;;;;;;24.50;14.77;;;;;;;-16.32;71.73;103086.09;5112611;28;20065;-66
2022/01/12 05:43:08;;;;;;;27.83;14.82;;;;;;;-16.22;71.66;103088.19;5112497;28;20060;-67
2022/01/12 05:45:37;;;;;;;27.83;18.33;;;;;;;-16.15;71.05;103087.66;5112456;28;20039;-67
2022/01/12 05:50:37;;;;;;;30.45;15.00;;;;;;;-15.92;71.42;103087.69;5110926;28;20036;-67
2022/01/12 05:53:03;;;;;;;29.42;13.95;;;;;;;-15.78;70.79;103081.44;5093944;28;20027;-67
2022/01/12 05:55:29;;;;;;;29.03;17.80;;;;;;;-15.57;70.25;103066.06;5112322;28;20047;-67
2022/01/12 05:57:55;;;;;;;31.58;16.98;;;;;;;-15.34;70.84;103083.94;5112521;28;20289;-68
2022/01/12 06:00:24;;;;;;;28.43;17.23;;;;;;;-15.25;69.68;103067.25;5112654;28;20084;-66
2022/01/12 06:02:49;;;;;;;27.13;17.15;;;;;;;-15.20;69.65;103078.50;5113368;28;20046;-68
2022/01/12 06:05:18;;;;;;;32.77;16.97;;;;;;;-15.23;69.94;103078.38;5113210;28;20040;-67
2022/01/12 06:07:44;;;;;;;32.45;17.58;;;;;;;-15.22;70.13;103077.56;5113888;28;20031;-67
2022/01/12 06:10:10;;;;;;;23.03;17.13;;;;;;;-15.20;69.70;103063.16;5114117;28;20075;-69
2022/01/12 06:12:36;;;;;;;29.60;18.87;;;;;;;-15.23;70.31;103052.81;5116561;28;20055;-69
2022/01/12 06:15:01;;;;;;;34.42;17.38;;;;;;;-15.07;69.82;103076.41;5116582;28;20046;-67
2022/01/12 06:17:28;;;;;;;30.80;19.33;;;;;;;-15.14;69.42;103059.13;5116260;28;20035;-69
2022/01/12 06:19:54;;;;;;;38.07;21.80;;;;;;;-15.16;69.73;103075.22;5116274;28;20508;-70
2022/01/12 06:22:19;;;;;;;27.60;17.07;;;;;;;-15.18;70.40;103071.75;5116257;28;20081;-71
2022/01/12 06:24:45;;;;;;;30.97;15.93;;;;;;;-15.14;69.65;103083.81;5116913;28;20042;-70
2022/01/12 06:27:14;;;;;;;27.73;17.77;;;;;;;-15.25;70.00;103065.56;5116478;28;20039;-70
2022/01/12 06:29:43;;;;;;;28.95;17.85;;;;;;;-15.15;69.78;103064.19;5116605;28;20042;-70
2022/01/12 06:32:20;;;;;;;32.75;17.92;;;;;;;-15.02;70.05;103074.06;5116739;28;20035;-66
2022/01/12 06:34:47;;;;;;;28.80;16.77;;;;;;;-14.91;70.07;103067.63;5081260;28;20053;-69
2022/01/12 06:37:12;;;;;;;26.60;17.77;;;;;;;-14.76;69.47;103068.13;5096955;28;20032;-75
2022/01/12 06:39:40;;;;;;;32.27;17.77;;;;;;;-14.77;69.63;103039.94;5115705;28;20277;-71
2022/01/12 06:42:06;;;;;;;32.97;17.83;;;;;;;-14.69;69.57;103042.78;5116594;28;20069;-73
2022/01/12 06:44:32;;;;;;;25.70;16.20;;;;;;;-14.75;69.83;103038.31;5116600;28;20119;-73
2022/01/12 06:47:02;;;;;;;28.07;16.13;;;;;;;-14.43;70.33;103058.19;5116144;28;20469;-73
2022/01/12 06:49:28;;;;;;;26.38;16.55;;;;;;;-14.34;68.90;103041.38;5116619;28;20562;-75
2022/01/12 06:51:53;;;;;;;25.10;16.73;;;;;;;-14.22;69.09;103042.63;5099265;28;20176;-73
2022/01/12 06:54:19;;;;;;;30.10;16.80;;;;;;;-14.18;68.12;103044.44;5097352;28;20501;-70
2022/01/12 06:56:45;;;;;;;27.33;19.80;;;;;;;-14.25;68.55;103024.59;5116183;28;20059;-74
2022/01/12 06:59:10;;;;;;;30.10;17.77;;;;;;;-14.36;68.62;103023.41;5081161;28;20047;-74
2022/01/12 07:01:36;;;;;;;33.30;18.63;;;;;;;-14.38;68.80;103037.84;5116874;28;20534;-75
2022/01/12 07:04:02;;;;;;;39.73;18.40;;;;;;;-14.34;68.78;103042.22;5116703;28;20074;-73
2022/01/12 07:06:27;;;;;;;30.97;17.83;;;;;;;-14.40;68.30;103042.03;5115309;28;20028;-68
2022/01/12 07:08:53;;;;;;;38.53;17.47;;;;;;;-14.40;68.44;103031.81;5115345;28;20055;-75
2022/01/12 07:11:18;;;;;;;31.53;18.27;;;;;;;-14.34;67.80;103043.91;5116839;28;20039;-72
2022/01/12 07:13:44;;;;;;;36.47;19.13;;;;;;;-14.37;67.98;103047.25;5121668;28;20062;-70
2022/01/12 07:16:11;;;;;;;31.05;17.58;;;;;;;-14.51;68.22;103025.47;5119713;28;20045;-70
2022/01/12 07:18:37;;;;;;;31.38;19.98;;;;;;;-14.54;68.72;103028.81;5126298;28;20036;-73
2022/01/12 07:21:03;;;;;;;33.65;17.50;;;;;;;-14.46;68.44;103045.28;5105006;28;20043;-68
2022/01/12 07:23:28;;;;;;;32.97;18.63;;;;;;;-14.57;68.62;103020.16;5114438;28;20038;-69
2022/01/12 07:25:54;;;;;;;65.70;30.63;;;;;;;-14.52;68.07;103018.63;5114232;28;20020;-72
2022/01/12 07:28:21;;;;;;;65.40;28.27;;;;;;;-14.53;68.88;103019.44;5115000;28;20508;-63
2022/01/12 07:30:47;;;;;;;44.05;21.38;;;;;;;-14.45;68.68;103024.00;5115094;28;20257;-67
2022/01/12 07:33:13;;;;;;;29.95;18.02;;;;;;;-14.36;68.50;103013.16;5114840;28;20051;-69
2022/01/12 07:35:40;;;;;;;33.75;17.30;;;;;;;-14.47;67.99;102986.38;5096648;28;20136;-67
2022/01/12 07:38:06;;;;;;;29.75;17.67;;;;;;;-14.43;68.66;103001.91;5114679;28;20066;-68
2022/01/12 07:40:33;;;;;;;23.00;17.60;;;;;;;-14.43;68.85;103001.91;5114875;28;20043;-67
2022/01/12 07:43:00;;;;;;;24.40;15.45;;;;;;;-14.44;68.36;102992.47;5115016;28;20031;-72
2022/01/12 07:45:26;;;;;;;34.55;18.33;;;;;;;-14.55;68.37;102969.91;5114226;28;20043;-68
2022/01/12 07:47:51;;;;;;;25.63;15.43;;;;;;;-14.47;67.89;102982.13;5096322;28;20042;-71
2022/01/12 07:50:17;;;;;;;32.33;17.53;;;;;;;-14.37;67.79;102984.97;5114781;28;20032;-72
2022/01/12 07:52:42;;;;;;;30.23;16.37;;;;;;;-14.44;68.28;102973.72;5096140;28;20031;-73
2022/01/12 07:55:08;;;;;;;39.77;19.03;;;;;;;-14.58;68.29;102963.00;5115681;28;20034;-74
2022/01/12 07:57:34;;;;;;;30.00;17.65;;;;;;;-14.60;68.84;102971.47;5114827;28;20126;-65
2022/01/12 08:00:00;;;;;;;33.25;17.45;;;;;;;-14.57;68.53;102976.66;5114323;28;20088;-66
2022/01/12 08:02:25;;;;;;;19.90;15.27;;;;;;;-14.59;68.27;102984.31;5114684;28;20123;-65
2022/01/12 08:04:51;;;;;;;32.97;16.93;;;;;;;-14.58;67.97;102973.25;5114402;28;20059;-65
2022/01/12 08:07:17;;;;;;;26.45;15.70;;;;;;;-14.73;67.77;102965.09;5113889;28;20468;-66
2022/01/12 08:09:43;;;;;;;27.97;14.93;;;;;;;-14.63;68.74;102977.34;5113987;28;20111;-66
2022/01/12 08:12:10;;;;;;;25.02;15.00;;;;;;;-14.64;68.16;102969.63;5114325;28;20031;-67
2022/01/12 08:14:35;;;;;;;24.42;16.02;;;;;;;-14.81;68.42;102961.38;5113975;28;20035;-63
2022/01/12 08:17:02;;;;;;;25.27;15.17;;;;;;;-14.81;68.95;102966.50;5113957;28;20556;-62
2022/01/12 08:19:28;;;;;;;27.67;15.38;;;;;;;-14.75;68.26;102969.25;5113710;28;20347;-63
2022/01/12 08:21:54;;;;;;;23.20;13.90;;;;;;;-14.97;68.96;102934.47;5113626;28;20118;-65
2022/01/12 08:24:20;;;;;;;30.77;14.88;;;;;;;-15.10;69.16;102919.53;5113807;28;20027;-72
2022/01/12 08:26:46;;;;;;;27.53;12.93;;;;;;;-14.87;69.50;102946.72;5113930;28;20038;-70
2022/01/12 08:29:15;;;;;;;26.00;15.18;;;;;;;-15.12;69.04;102898.16;5114063;28;20273;-67
2022/01/12 08:31:44;;;;;;;26.95;13.98;;;;;;;-14.80;69.43;102937.56;5113481;28;20038;-70
2022/01/12 08:34:10;;;;;;;24.83;13.80;;;;;;;-14.83;69.25;102933.22;5113363;28;20048;-67
2022/01/12 08:36:41;;;;;;;23.00;14.07;;;;;;;-15.09;69.49;102877.81;5113152;28;20039;-66
2022/01/12 08:39:10;;;;;;;26.38;16.40;;;;;;;-14.89;69.17;102907.44;5113357;28;20051;-67
2022/01/12 08:41:37;;;;;;;25.10;14.80;;;;;;;-14.94;69.02;102909.00;5113386;28;20410;-67
2022/01/12 08:44:04;;;;;;;23.83;13.60;;;;;;;-14.74;69.12;102913.06;5113567;28;20040;-68
2022/01/12 08:46:30;;;;;;;27.60;15.40;;;;;;;-14.80;68.73;102892.38;5113394;28;20354;-67
2022/01/12 08:48:56;;;;;;;18.87;13.47;;;;;;;-14.84;68.80;102885.44;5113327;28;20027;-67
2022/01/12 08:51:21;;;;;;;22.00;14.03;;;;;;;-15.00;69.84;102877.25;5114246;28;20438;-72
2022/01/12 08:53:48;;;;;;;20.63;13.37;;;;;;;-14.80;69.02;102891.53;5113631;28;20039;-70
2022/01/12 08:56:13;;;;;;;29.30;15.50;;;;;;;-14.77;69.03;102895.03;5113332;28;20035;-71
2022/01/12 08:58:40;;;;;;;15.13;12.70;;;;;;;-14.73;69.02;102888.38;5113304;28;20047;-68
2022/01/12 09:01:06;;;;;;;24.67;13.90;;;;;;;-14.66;67.90;102889.41;5112989;28;20040;-69
2022/01/12 09:03:32;;;;;;;25.20;14.30;;;;;;;-14.81;68.38;102865.09;5112993;28;20035;-73
2022/01/12 09:05:57;;;;;;;23.67;15.67;;;;;;;-14.66;68.41;102876.63;5113386;28;20036;-71
2022/01/12 09:08:23;;;;;;;20.17;12.63;;;;;;;-14.61;68.56;102868.28;5113125;28;20490;-69
2022/01/12 09:10:49;;;;;;;19.30;13.57;;;;;;;-14.57;67.75;102861.56;5113105;28;20069;-70
2022/01/12 09:13:15;;;;;;;19.70;13.60;;;;;;;-14.63;67.97;102834.09;5113049;28;20031;-70
2022/01/12 09:15:40;;;;;;;17.83;13.53;;;;;;;-14.24;67.93;102836.06;5112622;28;20038;-72
2022/01/12 09:18:06;;;;;;;21.90;13.93;;;;;;;-14.10;66.69;102837.31;5077682;28;20143;-73
2022/01/12 09:20:32;;;;;;;22.27;12.97;;;;;;;-14.06;66.94;102838.28;5113051;28;20039;-70
2022/01/12 09:22:58;;;;;;;16.33;11.17;;;;;;;-14.01;66.23;102837.56;5112956;28;20036;-75
2022/01/12 09:25:23;;;;;;;21.77;11.70;;;;;;;-13.95;67.03;102836.88;5112721;28;20032;-70
2022/01/12 09:27:49;;;;;;;20.40;14.60;;;;;;;-13.92;66.69;102821.59;5077545;28;20281;-70
2022/01/12 09:30:16;;;;;;;19.97;13.17;;;;;;;-14.03;66.12;102833.25;5112611;28;20039;-70
2022/01/12 09:32:41;;;;;;;18.30;13.85;;;;;;;-14.09;67.55;102821.13;5112449;28;20088;-68
2022/01/12 09:35:08;;;;;;;20.77;13.10;;;;;;;-14.11;67.05;102808.31;5113427;28;20035;-71
2022/01/12 09:37:35;;;;;;;22.52;13.95;;;;;;;-13.98;67.44;102801.81;5112581;28;20048;-68
2022/01/12 09:40:00;;;;;;;17.88;12.05;;;;;;;-13.89;67.58;102801.19;5112646;28;20510;-68
2022/01/12 09:42:26;;;;;;;23.00;14.70;;;;;;;-13.94;68.02;102789.94;5112842;28;20032;-69
2022/01/12 09:44:51;;;;;;;23.97;13.47;;;;;;;-13.91;67.42;102792.59;5111982;28;20077;-69
2022/01/12 09:47:17;;;;;;;22.20;13.80;;;;;;;-13.88;67.88;102808.03;5112158;28;20046;-69
2022/01/12 09:49:45;;;;;;;24.58;14.50;;;;;;;-13.81;68.65;102802.28;5112568;28;20124;-70
2022/01/12 09:52:12;;;;;;;24.67;13.25;;;;;;;-13.71;68.47;102785.44;5112687;28;20028;-67
2022/01/12 09:54:38;;;;;;;22.90;14.15;;;;;;;-13.66;68.35;102784.72;5112334;28;20119;-70
2022/01/12 09:57:05;;;;;;;27.15;15.60;;;;;;;-13.69;67.90;102768.41;5113440;28;20506;-70
2022/01/12 09:59:31;;;;;;;18.02;13.52;;;;;;;-13.50;68.20;102796.25;5094214;28;20043;-69
2022/01/12 10:01:59;;;;;;;31.17;15.68;;;;;;;-13.57;68.48;102774.72;5112147;28;20043;-68
2022/01/12 10:04:30;;;;;;;22.67;15.13;;;;;;;-13.61;68.59;102761.78;5111928;28;20081;-69
2022/01/12 10:06:59;;;;;;;26.20;13.93;;;;;;;-13.54;68.81;102754.28;5112348;28;20042;-70
2022/01/12 10:09:38;;;;;;;29.95;13.77;;;;;;;-13.42;67.80;102755.41;5094275;28;20031;-70
2022/01/12 10:12:10;;;;;;;22.38;13.10;;;;;;;-13.95;67.93;102649.94;5112484;28;20039;-74
2022/01/12 10:14:39;;;;;;;21.20;13.80;;;;;;;-13.37;68.56;102728.19;5094137;28;20035;-69
2022/01/12 10:17:05;;;;;;;26.75;16.63;;;;;;;-13.30;68.69;102733.50;5112085;28;20118;-72
2022/01/12 10:19:32;;;;;;;26.70;16.47;;;;;;;-13.12;69.28;102733.03;5112070;28;20463;-70
2022/01/12 10:22:00;;;;;;;20.40;13.95;;;;;;;-12.97;67.88;102727.38;5094941;28;20445;-64
2022/01/12 10:24:26;;;;;;;22.63;12.88;;;;;;;-12.99;68.64;102709.41;5112231;28;20044;-69
2022/01/12 10:26:53;;;;;;;26.73;16.65;;;;;;;-12.83;68.05;102711.44;5111940;28;20051;-70
2022/01/12 10:29:25;;;;;;;27.88;14.23;;;;;;;-12.91;68.12;102666.81;5112023;28;20036;-69
2022/01/12 10:31:56;;;;;;;22.67;13.57;;;;;;;-12.84;67.63;102667.78;5094215;28;20035;-68
2022/01/12 10:34:25;;;;;;;20.05;12.20;;;;;;;-12.64;67.58;102681.03;5112095;28;20043;-70
2022/01/12 10:36:53;;;;;;;27.88;15.70;;;;;;;-12.49;67.33;102696.72;5111910;28;20069;-71
2022/01/12 10:39:21;;;;;;;20.75;14.05;;;;;;;-12.61;67.90;102640.91;5112090;28;20047;-71
2022/01/12 10:41:56;;;;;;;27.27;13.45;;;;;;;-12.21;66.88;102690.41;5111875;28;20058;-69
2022/01/12 10:44:24;;;;;;;22.63;14.85;;;;;;;-12.06;66.77;102682.13;5112029;28;20110;-70
2022/01/12 10:47:01;;;;;;;31.85;17.42;;;;;;;-11.91;67.25;102677.22;5112059;28;20031;-73
2022/01/12 10:49:27;;;;;;;21.73;15.43;;;;;;;-11.66;67.52;102684.47;5112150;28;20036;-72
2022/01/12 10:51:56;;;;;;;19.63;13.77;;;;;;;-11.82;65.88;102630.28;5111832;28;20105;-69
2022/01/12 10:54:22;;;;;;;22.73;14.52;;;;;;;-11.62;66.01;102663.13;5111976;28;20038;-68
2022/01/12 10:56:48;;;;;;;28.30;14.77;;;;;;;-11.70;66.79;102659.56;5112431;28;20123;-69
2022/01/12 10:59:18;;;;;;;24.53;14.60;;;;;;;-11.95;66.98;102631.78;5115731;28;20044;-68
2022/01/12 11:01:44;;;;;;;21.55;15.63;;;;;;;-11.69;68.18;102648.44;5115386;28;20088;-68
2022/01/12 11:04:10;;;;;;;29.70;17.93;;;;;;;-11.52;67.47;102622.16;5115295;28;20039;-67
2022/01/12 11:06:36;;;;;;;24.13;16.10;;;;;;;-11.38;66.91;102633.47;5115175;28;20131;-67
2022/01/12 11:09:03;;;;;;;26.47;15.63;;;;;;;-11.49;67.38;102604.19;5115751;28;20063;-68
2022/01/12 11:11:29;;;;;;;30.95;17.73;;;;;;;-11.26;67.65;102638.81;5115049;28;20034;-69
2022/01/12 11:13:55;;;;;;;26.27;18.63;;;;;;;-11.36;66.61;102611.22;5115115;28;20031;-68
2022/01/12 11:16:27;;;;;;;29.92;17.42;;;;;;;-11.35;67.67;102613.81;5115397;28;20051;-68
2022/01/12 11:18:54;;;;;;;24.85;16.83;;;;;;;-11.34;67.39;102594.09;5114861;28;20515;-69
2022/01/12 11:21:42;;;;;;;29.45;16.35;;;;;;;-11.21;68.75;102598.56;5114620;28;20500;-67
2022/01/12 11:24:12;;;;;;;29.67;18.30;;;;;;;-10.97;67.82;102606.59;5115303;28;20043;-70
2022/01/12 11:26:47;;;;;;;36.75;19.42;;;;;;;-10.79;67.39;102599.91;5115402;28;20061;-73
2022/01/12 11:29:13;;;;;;;32.92;19.85;;;;;;;-10.80;67.56;102590.47;5115001;28;20031;-71
2022/01/12 11:31:40;;;;;;;41.40;21.70;;;;;;;-10.92;67.96;102556.91;5114902;28;20043;-72
2022/01/12 11:34:16;;;;;;;29.05;17.55;;;;;;;-10.78;67.23;102586.19;5115069;28;20406;-73
2022/01/12 11:36:41;;;;;;;33.60;20.40;;;;;;;-10.71;67.88;102582.84;5114964;28;20028;-73
2022/01/12 11:39:11;;;;;;;36.22;19.15;;;;;;;-10.61;67.54;102578.66;5114979;28;20165;-70
2022/01/12 11:41:41;;;;;;;29.77;15.85;;;;;;;-10.53;68.09;102553.84;5115854;28;20593;-77
2022/01/12 11:44:12;;;;;;;24.23;17.38;;;;;;;-10.52;67.85;102540.97;5115184;28;20075;-73
2022/01/12 11:46:45;;;;;;;32.88;18.30;;;;;;;-10.47;67.84;102536.72;5097127;28;20039;-73
2022/01/12 11:49:12;;;;;;;31.83;17.92;;;;;;;-10.42;68.11;102523.88;5114800;28;20032;-76
2022/01/12 11:51:44;;;;;;;25.83;17.35;;;;;;;-10.21;68.78;102534.38;5114762;28;20036;-79
2022/01/12 11:54:11;;;;;;;32.90;16.60;;;;;;;-10.21;68.03;102518.06;5113843;28;20379;-68
2022/01/12 11:56:50;;;;;;;29.02;18.08;;;;;;;-10.22;68.03;102491.44;5111628;28;20031;-75
2022/01/12 11:59:15;;;;;;;28.13;15.65;;;;;;;-10.13;67.54;102488.00;5114706;28;20066;-76
2022/01/12 12:01:48;;;;;;;25.67;15.27;;;;;;;-10.27;67.71;102475.09;5114581;28;20036;-73
2022/01/12 12:04:32;;;;;;;28.50;16.33;;;;;;;-10.43;68.19;102447.47;5114383;28;20543;-77
2022/01/12 12:07:13;;;;;;;30.08;18.95;;;;;;;-10.45;69.16;102462.06;5114156;28;20482;-74
2022/01/12 12:09:44;;;;;;;24.40;15.77;;;;;;;-10.47;69.77;102462.06;5114438;28;20062;-77
2022/01/12 12:12:18;;;;;;;25.85;14.85;;;;;;;-10.51;69.86;102452.59;5114519;28;20092;-73
2022/01/12 12:14:49;;;;;;;23.15;13.80;;;;;;;-10.52;70.12;102452.56;5114311;28;20039;-75
2022/01/12 12:17:18;;;;;;;23.45;12.80;;;;;;;-10.39;69.61;102468.16;5113529;28;20551;-75
2022/01/12 12:19:45;;;;;;;24.08;14.05;;;;;;;-10.35;69.99;102435.53;5113960;28;20077;-68
2022/01/12 12:22:16;;;;;;;22.10;13.55;;;;;;;-10.28;69.61;102421.84;5113958;28;20122;-70
2022/01/12 12:24:43;;;;;;;23.90;13.88;;;;;;;-10.00;69.18;102433.13;5113931;28;20050;-71
2022/01/12 12:27:11;;;;;;;22.35;11.93;;;;;;;-9.91;69.70;102430.59;5114059;28;20050;-71
2022/01/12 12:29:37;;;;;;;18.25;12.02;;;;;;;-9.87;69.52;102432.34;5113574;28;20031;-70
2022/01/12 12:32:05;;;;;;;18.13;12.13;;;;;;;-9.78;70.08;102440.13;5113442;28;20031;-69
2022/01/12 12:34:33;;;;;;;17.40;10.95;;;;;;;-9.73;70.07;102438.44;5113771;28;20084;-69
2022/01/12 12:37:01;;;;;;;22.85;13.20;;;;;;;-9.60;69.87;102439.31;5113526;28;20035;-65
2022/01/12 12:39:34;;;;;;;22.27;13.18;;;;;;;-9.57;70.14;102420.41;5113300;28;20047;-70
2022/01/12 12:42:02;;;;;;;22.92;13.70;;;;;;;-9.49;70.23;102426.50;5113266;28;20039;-72
2022/01/12 12:44:30;;;;;;;20.20;12.88;;;;;;;-9.52;70.24;102418.75;5112999;28;20040;-66
2022/01/12 12:47:05;;;;;;;19.83;12.85;;;;;;;-9.46;70.37;102426.50;5113425;28;20163;-65
2022/01/12 12:49:30;;;;;;;19.13;11.60;;;;;;;-9.44;70.35;102417.03;5112955;28;20042;-68
2022/01/12 12:52:03;;;;;;;17.37;12.03;;;;;;;-9.52;70.68;102386.06;5113327;28;20024;-67
2022/01/12 12:54:30;;;;;;;19.08;12.88;;;;;;;-9.49;70.42;102378.34;5113100;28;20490;-67
2022/01/12 12:57:10;;;;;;;18.85;12.07;;;;;;;-9.34;70.23;102385.25;5113019;28;20035;-70
2022/01/12 12:59:35;;;;;;;20.38;13.13;;;;;;;-9.41;70.74;102370.63;5094862;28;20070;-66